BRX289 ESGG-ESSB
Flight info
| Callsign | BRX289 |
|---|---|
| Flight time | N/A |
| Altitude | 27000 |
| Route | LABAN Y430 TINKA |
| Aircraft | RJ85/M-SDFGIRWY/LB1 |
Departure
| Time | 2026-05-06 14:43 |
|---|---|
| Airport | Göteborg Landvetter Airport (ESGG) |
Arrival
| Time | N/A |
|---|---|
| Airport | Stockholm-Bromma Airport (ESSB) |
| Time | Latitude | Longitude | Altitude | Speed | Heading |
|---|---|---|---|---|---|
| 2026-05-06 14:21 | 57.67108 | 12.29386 | 516 ft | 0 kts | 251° |
| 2026-05-06 14:38 | 57.67108 | 12.29385 | 516 ft | 0 kts | 246° |
| 2026-05-06 14:38 | 57.67098 | 12.29381 | 516 ft | 4 kts | 176° |
| 2026-05-06 14:38 | 57.67058 | 12.29398 | 516 ft | 7 kts | 167° |
| 2026-05-06 14:38 | 57.67007 | 12.29378 | 516 ft | 8 kts | 205° |
| 2026-05-06 14:39 | 57.66981 | 12.29335 | 516 ft | 5 kts | 258° |
| 2026-05-06 14:39 | 57.66994 | 12.29260 | 516 ft | 8 kts | 294° |
| 2026-05-06 14:39 | 57.67007 | 12.29203 | 516 ft | 0 kts | 284° |
| 2026-05-06 14:40 | 57.67005 | 12.29178 | 516 ft | 5 kts | 251° |
| 2026-05-06 14:40 | 57.66963 | 12.29106 | 516 ft | 12 kts | 215° |
| 2026-05-06 14:40 | 57.66880 | 12.29034 | 515 ft | 14 kts | 202° |
| 2026-05-06 14:40 | 57.66824 | 12.28963 | 515 ft | 8 kts | 257° |
| 2026-05-06 14:41 | 57.66824 | 12.28838 | 513 ft | 11 kts | 243° |
| 2026-05-06 14:41 | 57.66782 | 12.28756 | 512 ft | 8 kts | 233° |
| 2026-05-06 14:41 | 57.66745 | 12.28660 | 512 ft | 12 kts | 234° |
| 2026-05-06 14:41 | 57.66682 | 12.28488 | 512 ft | 18 kts | 236° |
| 2026-05-06 14:42 | 57.66607 | 12.28293 | 511 ft | 17 kts | 233° |
| 2026-05-06 14:42 | 57.66582 | 12.28252 | 511 ft | 2 kts | 208° |
| 2026-05-06 14:42 | 57.66332 | 12.28026 | 510 ft | 76 kts | 206° |
| 2026-05-06 14:42 | 57.65650 | 12.27408 | 503 ft | 140 kts | 209° |
| 2026-05-06 14:43 | 57.64712 | 12.26572 | 1065 ft | 146 kts | 207° |
| 2026-05-06 14:43 | 57.63798 | 12.25859 | 1911 ft | 147 kts | 205° |
| 2026-05-06 14:43 | 57.62865 | 12.25084 | 2628 ft | 147 kts | 205° |
| 2026-05-06 14:43 | 57.61809 | 12.24559 | 3031 ft | 173 kts | 172° |
| 2026-05-06 14:44 | 57.60661 | 12.25379 | 3629 ft | 182 kts | 155° |
| 2026-05-06 14:44 | 57.59451 | 12.26461 | 4092 ft | 199 kts | 154° |
| 2026-05-06 14:44 | 57.58208 | 12.27584 | 4766 ft | 198 kts | 150° |
| 2026-05-06 14:45 | 57.57325 | 12.32080 | 5984 ft | 204 kts | 85° |
| 2026-05-06 14:45 | 57.57556 | 12.34720 | 6557 ft | 209 kts | 81° |
| 2026-05-06 14:45 | 57.57902 | 12.37397 | 7162 ft | 215 kts | 76° |
| 2026-05-06 14:45 | 57.58341 | 12.40092 | 7698 ft | 223 kts | 73° |
| 2026-05-06 14:46 | 57.58868 | 12.42918 | 8089 ft | 239 kts | 71° |
| 2026-05-06 14:46 | 57.59476 | 12.45912 | 8525 ft | 254 kts | 70° |
| 2026-05-06 14:46 | 57.60135 | 12.49048 | 8999 ft | 267 kts | 69° |
| 2026-05-06 14:46 | 57.60836 | 12.52320 | 9636 ft | 274 kts | 69° |
| 2026-05-06 14:47 | 57.61546 | 12.55639 | 10311 ft | 279 kts | 69° |
| 2026-05-06 14:47 | 57.62425 | 12.58937 | 10828 ft | 291 kts | 51° |
| 2026-05-06 14:47 | 57.63967 | 12.61403 | 11251 ft | 304 kts | 34° |
| 2026-05-06 14:47 | 57.64845 | 12.62509 | 11425 ft | 312 kts | 33° |
| 2026-05-06 14:48 | 57.66712 | 12.64766 | 11762 ft | 326 kts | 31° |
| 2026-05-06 14:48 | 57.68659 | 12.67079 | 12100 ft | 337 kts | 31° |
| 2026-05-06 14:48 | 57.70650 | 12.69460 | 12596 ft | 341 kts | 32° |
| 2026-05-06 14:48 | 57.72649 | 12.71897 | 13087 ft | 345 kts | 32° |
| 2026-05-06 14:49 | 57.74665 | 12.74384 | 13569 ft | 349 kts | 32° |
| 2026-05-06 14:49 | 57.76689 | 12.76957 | 13983 ft | 353 kts | 33° |
| 2026-05-06 14:49 | 57.78713 | 12.79578 | 14381 ft | 356 kts | 33° |
| 2026-05-06 14:49 | 57.80758 | 12.82214 | 14773 ft | 359 kts | 32° |
| 2026-05-06 14:50 | 57.82827 | 12.84858 | 15144 ft | 362 kts | 32° |
| 2026-05-06 14:50 | 57.84914 | 12.87527 | 15532 ft | 365 kts | 32° |
| 2026-05-06 14:50 | 57.87017 | 12.90228 | 15905 ft | 368 kts | 32° |
| 2026-05-06 14:50 | 57.89073 | 12.93135 | 16250 ft | 373 kts | 43° |
| 2026-05-06 14:51 | 57.90786 | 12.96825 | 16595 ft | 377 kts | 50° |
| 2026-05-06 14:51 | 57.92405 | 13.00736 | 16950 ft | 380 kts | 51° |
| 2026-05-06 14:51 | 57.94009 | 13.04699 | 17312 ft | 383 kts | 52° |
| 2026-05-06 14:51 | 57.95616 | 13.08743 | 17670 ft | 386 kts | 52° |
| 2026-05-06 14:52 | 57.97172 | 13.12639 | 18008 ft | 389 kts | 51° |
| 2026-05-06 14:52 | 57.98709 | 13.16445 | 18299 ft | 392 kts | 51° |
| 2026-05-06 14:52 | 58.00383 | 13.20510 | 18597 ft | 395 kts | 51° |
| 2026-05-06 14:52 | 58.02079 | 13.24615 | 18891 ft | 398 kts | 50° |
| 2026-05-06 14:53 | 58.03787 | 13.28744 | 19157 ft | 401 kts | 50° |
| 2026-05-06 14:53 | 58.05509 | 13.32906 | 19462 ft | 403 kts | 50° |
| 2026-05-06 14:53 | 58.07239 | 13.37098 | 19744 ft | 406 kts | 50° |
| 2026-05-06 14:53 | 58.08982 | 13.41326 | 20029 ft | 409 kts | 50° |
| 2026-05-06 14:54 | 58.10735 | 13.45587 | 20304 ft | 412 kts | 50° |
| 2026-05-06 14:54 | 58.12503 | 13.49894 | 20581 ft | 416 kts | 50° |
| 2026-05-06 14:54 | 58.14279 | 13.54225 | 20855 ft | 418 kts | 50° |
| 2026-05-06 14:54 | 58.16070 | 13.58597 | 21134 ft | 421 kts | 50° |
| 2026-05-06 14:55 | 58.17870 | 13.63002 | 21396 ft | 424 kts | 51° |
| 2026-05-06 14:55 | 58.19678 | 13.67431 | 21638 ft | 427 kts | 50° |
| 2026-05-06 14:55 | 58.21502 | 13.71907 | 21911 ft | 430 kts | 51° |
| 2026-05-06 14:55 | 58.23335 | 13.76413 | 22175 ft | 433 kts | 51° |
| 2026-05-06 14:56 | 58.25181 | 13.80956 | 22410 ft | 436 kts | 51° |
| 2026-05-06 14:56 | 58.27018 | 13.85545 | 22655 ft | 438 kts | 51° |
| 2026-05-06 14:56 | 58.28867 | 13.90175 | 22888 ft | 441 kts | 51° |
| 2026-05-06 14:56 | 58.30737 | 13.94815 | 23154 ft | 444 kts | 51° |
| 2026-05-06 14:57 | 58.32622 | 13.99492 | 23402 ft | 446 kts | 51° |
| 2026-05-06 14:57 | 58.34513 | 14.04182 | 23623 ft | 448 kts | 51° |
| 2026-05-06 14:57 | 58.36405 | 14.08927 | 23848 ft | 450 kts | 51° |
| 2026-05-06 14:57 | 58.38311 | 14.13766 | 24071 ft | 452 kts | 52° |
| 2026-05-06 14:58 | 58.40178 | 14.18504 | 24283 ft | 454 kts | 51° |
| 2026-05-06 14:58 | 58.42123 | 14.23349 | 24492 ft | 456 kts | 51° |
| 2026-05-06 14:58 | 58.44020 | 14.28121 | 24686 ft | 458 kts | 52° |
| 2026-05-06 14:58 | 58.45937 | 14.32979 | 24942 ft | 458 kts | 52° |
| 2026-05-06 14:59 | 58.47856 | 14.37848 | 25193 ft | 458 kts | 52° |
| 2026-05-06 14:59 | 58.49776 | 14.42719 | 25442 ft | 459 kts | 52° |
| 2026-05-06 14:59 | 58.51697 | 14.47582 | 25698 ft | 459 kts | 52° |
| 2026-05-06 14:59 | 58.53618 | 14.52440 | 25944 ft | 459 kts | 52° |
| 2026-05-06 15:00 | 58.54928 | 14.55746 | 26110 ft | 459 kts | 52° |
| 2026-05-06 15:00 | 58.56841 | 14.60630 | 26356 ft | 459 kts | 53° |
| 2026-05-06 15:00 | 58.58742 | 14.65535 | 26591 ft | 460 kts | 53° |
| 2026-05-06 15:00 | 58.60646 | 14.70461 | 26809 ft | 459 kts | 53° |
| 2026-05-06 15:01 | 58.62545 | 14.75370 | 26904 ft | 460 kts | 53° |
| 2026-05-06 15:01 | 58.64434 | 14.80257 | 26923 ft | 448 kts | 53° |
| 2026-05-06 15:01 | 58.66285 | 14.85048 | 26934 ft | 447 kts | 53° |
| 2026-05-06 15:01 | 58.68139 | 14.89850 | 26934 ft | 449 kts | 53° |
| 2026-05-06 15:02 | 58.70005 | 14.94689 | 26941 ft | 450 kts | 53° |
| 2026-05-06 15:02 | 58.71869 | 14.99531 | 26947 ft | 451 kts | 53° |
| 2026-05-06 15:02 | 58.73733 | 15.04377 | 26946 ft | 451 kts | 53° |
| 2026-05-06 15:02 | 58.75598 | 15.09231 | 26948 ft | 451 kts | 53° |
| 2026-05-06 15:03 | 58.77467 | 15.14100 | 26941 ft | 452 kts | 53° |
| 2026-05-06 15:03 | 58.79339 | 15.18980 | 26945 ft | 453 kts | 53° |
| 2026-05-06 15:03 | 58.81209 | 15.23863 | 26944 ft | 453 kts | 53° |
| 2026-05-06 15:03 | 58.83078 | 15.28752 | 26948 ft | 453 kts | 53° |
| 2026-05-06 15:04 | 58.84955 | 15.33666 | 26947 ft | 454 kts | 53° |
| 2026-05-06 15:04 | 58.86827 | 15.38576 | 26949 ft | 455 kts | 53° |